createdAt,value
2022-09-25T00:01:56.164Z,97098.00
2022-09-25T00:04:25.804Z,97110.00
2022-09-25T00:06:53.909Z,97111.00
2022-09-25T00:09:23.461Z,97120.00
2022-09-25T00:11:51.632Z,97118.00
2022-09-25T00:14:19.788Z,97108.00
2022-09-25T00:16:48.087Z,97113.00
2022-09-25T00:19:43.067Z,97103.00
2022-09-25T00:22:12.526Z,97115.00
2022-09-25T00:24:40.668Z,97103.00
2022-09-25T00:27:09.088Z,97116.00
2022-09-25T00:29:39.537Z,97100.00
2022-09-25T00:32:10.731Z,97103.00
2022-09-25T00:34:40.390Z,97111.00
2022-09-25T00:37:08.919Z,97097.00
2022-09-25T00:39:38.642Z,97109.00
2022-09-25T00:42:06.841Z,97101.00
2022-09-25T00:45:02.897Z,97105.00
2022-09-25T00:47:54.174Z,97109.00
2022-09-25T00:50:33.087Z,97108.00
2022-09-25T00:53:09.468Z,97101.00
2022-09-25T00:55:45.101Z,97090.00
2022-09-25T00:58:17.933Z,97109.00
2022-09-25T01:00:46.661Z,97096.00
2022-09-25T01:03:15.448Z,97080.00
2022-09-25T01:05:46.413Z,97084.00
2022-09-25T01:08:18.979Z,97091.00
2022-09-25T01:10:48.507Z,97092.00
2022-09-25T01:13:18.149Z,97086.00
2022-09-25T01:15:58.292Z,97082.00
2022-09-25T01:18:43.240Z,97084.00
2022-09-25T01:21:34.053Z,97082.00
2022-09-25T01:24:43.762Z,97066.00
2022-09-25T01:27:41.252Z,97065.00
2022-09-25T01:30:15.306Z,97053.00
2022-09-25T01:32:59.648Z,97056.00
2022-09-25T01:35:39.778Z,97054.00
2022-09-25T01:38:23.117Z,97060.00
2022-09-25T01:40:59.587Z,97044.00
2022-09-25T01:43:33.482Z,97047.00
2022-09-25T01:46:09.668Z,97063.00
2022-09-25T01:48:41.918Z,97061.00
2022-09-25T01:51:18.176Z,97055.00
2022-09-25T01:53:52.543Z,97052.00
2022-09-25T01:56:32.729Z,97047.00
2022-09-25T01:59:06.953Z,97055.00
2022-09-25T02:01:42.446Z,97056.00
2022-09-25T02:04:21.407Z,97058.00
2022-09-25T02:06:52.572Z,97044.00
2022-09-25T02:09:28.417Z,97054.00
2022-09-25T02:12:05.936Z,97063.00
2022-09-25T02:14:39.776Z,97058.00
2022-09-25T02:17:34.843Z,97050.00
2022-09-25T02:20:21.091Z,97051.00
2022-09-25T02:22:53.483Z,97053.00
2022-09-25T02:25:32.064Z,97048.00
2022-09-25T02:28:00.216Z,97058.00
2022-09-25T02:30:28.379Z,97059.00
2022-09-25T02:32:58.359Z,97067.00
2022-09-25T02:35:27.183Z,97055.00
2022-09-25T02:37:57.722Z,97060.00
2022-09-25T02:40:36.314Z,97061.00
2022-09-25T02:43:19.797Z,97060.00
2022-09-25T02:46:02.963Z,97056.00
2022-09-25T02:48:49.213Z,97058.00
2022-09-25T02:51:30.020Z,97052.00
2022-09-25T02:54:09.615Z,97068.00
2022-09-25T02:56:47.061Z,97054.00
2022-09-25T02:59:23.039Z,97057.00
2022-09-25T03:01:52.580Z,97061.00
2022-09-25T03:04:26.059Z,97074.00
2022-09-25T03:06:55.338Z,97053.00
2022-09-25T03:09:26.106Z,97044.00
2022-09-25T03:11:55.062Z,97048.00
2022-09-25T03:14:23.202Z,97041.00
2022-09-25T03:16:56.259Z,97045.00
2022-09-25T03:19:29.545Z,97045.00
2022-09-25T03:21:58.437Z,97045.00
2022-09-25T03:24:26.550Z,97048.00
2022-09-25T03:26:55.365Z,97048.00
2022-09-25T03:29:23.765Z,97062.00
2022-09-25T03:31:51.985Z,97049.00
2022-09-25T03:34:21.618Z,97038.00
2022-09-25T03:36:51.142Z,97055.00
2022-09-25T03:39:19.234Z,97060.00
2022-09-25T03:41:47.820Z,97056.00
2022-09-25T03:44:16.297Z,97052.00
2022-09-25T03:46:44.384Z,97048.00
2022-09-25T03:49:12.784Z,97052.00
2022-09-25T03:51:42.017Z,97064.00
2022-09-25T03:54:11.593Z,97053.00
2022-09-25T03:56:39.940Z,97042.00
2022-09-25T03:59:08.127Z,97052.00
2022-09-25T04:01:36.902Z,97046.00
2022-09-25T04:04:05.234Z,97039.00
2022-09-25T04:06:33.339Z,97044.00
2022-09-25T04:09:01.477Z,97030.00
2022-09-25T04:11:31.883Z,97041.00
2022-09-25T04:13:59.956Z,97032.00
2022-09-25T04:16:31.190Z,97042.00
2022-09-25T04:18:59.521Z,97037.00
2022-09-25T04:21:27.889Z,97017.00
2022-09-25T04:24:13.470Z,97028.00
2022-09-25T04:26:42.969Z,97038.00
2022-09-25T04:29:11.180Z,97021.00
2022-09-25T04:31:39.338Z,97026.00
2022-09-25T04:34:06.569Z,97014.00
2022-09-25T04:36:35.088Z,97022.00
2022-09-25T04:39:03.486Z,97036.00
2022-09-25T04:41:31.587Z,97039.00
2022-09-25T04:44:01.173Z,97037.00
2022-09-25T04:46:29.374Z,97042.00
2022-09-25T04:48:57.535Z,97029.00
2022-09-25T04:51:25.713Z,97039.00
2022-09-25T04:53:53.865Z,97030.00
2022-09-25T04:56:22.009Z,97036.00
2022-09-25T04:58:51.455Z,97034.00
2022-09-25T05:01:22.532Z,97026.00
2022-09-25T05:03:53.867Z,97034.00
2022-09-25T05:06:22.935Z,97041.00
2022-09-25T05:08:51.670Z,97027.00
2022-09-25T05:11:19.926Z,97031.00
2022-09-25T05:13:51.699Z,97031.00
2022-09-25T05:16:21.628Z,97023.00
2022-09-25T05:18:50.218Z,97022.00
2022-09-25T05:21:18.487Z,97025.00
2022-09-25T05:23:46.522Z,97022.00
2022-09-25T05:26:14.904Z,97031.00
2022-09-25T05:28:43.005Z,97019.00
2022-09-25T05:31:11.350Z,97028.00
2022-09-25T05:33:41.050Z,97038.00
2022-09-25T05:36:10.242Z,97034.00
2022-09-25T05:38:40.858Z,97030.00
2022-09-25T05:41:11.491Z,97020.00
2022-09-25T05:43:42.893Z,97032.00
2022-09-25T05:46:12.101Z,97034.00
2022-09-25T05:48:41.934Z,97038.00
2022-09-25T05:51:11.138Z,97031.00
2022-09-25T05:53:39.319Z,97034.00
2022-09-25T05:56:07.924Z,97034.00
2022-09-25T05:58:36.671Z,97036.00
2022-09-25T06:01:07.412Z,97038.00
2022-09-25T06:03:36.043Z,97048.00
2022-09-25T06:06:06.145Z,97032.00
2022-09-25T06:08:36.370Z,97045.00
2022-09-25T06:11:06.465Z,97044.00
2022-09-25T06:13:37.094Z,97045.00
2022-09-25T06:16:06.396Z,97049.00
2022-09-25T06:18:34.590Z,97050.00
2022-09-25T06:21:06.562Z,97036.00
2022-09-25T06:23:34.745Z,97047.00
2022-09-25T06:26:04.032Z,97054.00
2022-09-25T06:28:33.033Z,97042.00
2022-09-25T06:31:02.471Z,97047.00
2022-09-25T06:33:31.570Z,97045.00
2022-09-25T06:36:00.444Z,97035.00
2022-09-25T06:38:30.195Z,97048.00
2022-09-25T06:41:00.860Z,97031.00
2022-09-25T06:43:30.372Z,97040.00
2022-09-25T06:46:03.414Z,97046.00
2022-09-25T06:48:32.235Z,97036.00
2022-09-25T06:51:01.840Z,97036.00
2022-09-25T06:53:31.496Z,97034.00
2022-09-25T06:56:00.775Z,97040.00
2022-09-25T06:58:31.335Z,97042.00
2022-09-25T07:00:59.764Z,97043.00
2022-09-25T07:03:45.337Z,97042.00
2022-09-25T07:06:16.471Z,97044.00
2022-09-25T07:08:47.950Z,97039.00
2022-09-25T07:11:19.101Z,97046.00
2022-09-25T07:13:47.880Z,97047.00
2022-09-25T07:16:18.698Z,97053.00
2022-09-25T07:18:47.620Z,97047.00
2022-09-25T07:21:19.366Z,97043.00
2022-09-25T07:23:50.991Z,97052.00
2022-09-25T07:26:22.888Z,97047.00
2022-09-25T07:28:56.857Z,97056.00
2022-09-25T07:31:27.541Z,97058.00
2022-09-25T07:33:55.994Z,97047.00
2022-09-25T07:36:24.639Z,97050.00
2022-09-25T07:38:54.990Z,97050.00
2022-09-25T07:41:24.569Z,97054.00
2022-09-25T07:46:46.106Z,97058.00
2022-09-25T07:49:14.911Z,97051.00
2022-09-25T07:51:43.055Z,97057.00
2022-09-25T07:54:12.761Z,97042.00
2022-09-25T07:56:41.009Z,97042.00
2022-09-25T07:59:09.101Z,97042.00
2022-09-25T08:01:41.153Z,97051.00
2022-09-25T08:04:11.842Z,97052.00
2022-09-25T08:06:39.914Z,97049.00
2022-09-25T08:09:10.537Z,97054.00
2022-09-25T08:11:40.418Z,97057.00
2022-09-25T08:14:08.617Z,97049.00
2022-09-25T08:16:36.749Z,97059.00
2022-09-25T08:19:05.099Z,97053.00
2022-09-25T08:21:33.343Z,97047.00
2022-09-25T08:24:02.051Z,97050.00
2022-09-25T08:26:31.792Z,97047.00
2022-09-25T08:29:01.414Z,97046.00
2022-09-25T08:31:29.574Z,97057.00
2022-09-25T08:34:09.749Z,97044.00
2022-09-25T08:36:45.958Z,97042.00
2022-09-25T08:39:14.088Z,97051.00
2022-09-25T08:41:49.581Z,97042.00
2022-09-25T08:44:29.425Z,97052.00
2022-09-25T08:47:23.478Z,97040.00
2022-09-25T08:50:10.537Z,97042.00
2022-09-25T08:52:43.404Z,97039.00
2022-09-25T08:55:20.150Z,97035.00
2022-09-25T08:57:49.733Z,97028.00
2022-09-25T09:00:24.975Z,97038.00
2022-09-25T09:02:56.940Z,97029.00
2022-09-25T09:05:31.446Z,97032.00
2022-09-25T09:08:04.947Z,97032.00
2022-09-25T09:10:41.375Z,97037.00
2022-09-25T09:13:24.810Z,97012.00
2022-09-25T09:16:03.456Z,97037.00
2022-09-25T09:18:37.131Z,97024.00
2022-09-25T09:21:13.377Z,97033.00
2022-09-25T09:23:52.572Z,97026.00
2022-09-25T09:26:28.349Z,97017.00
2022-09-25T09:29:20.645Z,97027.00
2022-09-25T09:32:01.751Z,97025.00
2022-09-25T09:35:06.438Z,97028.00
2022-09-25T09:37:50.701Z,97017.00
2022-09-25T09:40:35.478Z,97010.00
2022-09-25T09:43:20.602Z,97011.00
2022-09-25T09:45:57.115Z,97016.00
2022-09-25T09:48:37.531Z,97017.00
2022-09-25T09:51:12.812Z,97009.00
2022-09-25T09:53:48.855Z,97004.00
2022-09-25T09:56:25.565Z,97013.00
2022-09-25T09:58:58.465Z,97014.00
2022-09-25T10:01:42.081Z,97000.00
2022-09-25T10:04:18.237Z,97002.00
2022-09-25T10:06:51.049Z,96989.00
2022-09-25T10:09:19.576Z,97005.00
2022-09-25T10:11:57.794Z,96982.00
2022-09-25T10:14:35.160Z,96989.00
2022-09-25T10:17:05.090Z,96986.00
2022-09-25T10:19:48.574Z,96981.00
2022-09-25T10:22:21.963Z,96979.00
2022-09-25T10:24:55.226Z,96979.00
2022-09-25T10:27:36.968Z,96980.00
2022-09-25T10:30:15.784Z,96972.00
2022-09-25T10:32:47.750Z,96974.00
2022-09-25T10:35:23.886Z,96976.00
2022-09-25T10:37:55.860Z,96980.00
2022-09-25T10:40:33.984Z,96976.00
2022-09-25T10:43:20.354Z,96979.00
2022-09-25T10:45:52.567Z,96979.00
2022-09-25T10:48:52.099Z,96990.00
2022-09-25T10:51:23.425Z,96980.00
2022-09-25T10:53:53.159Z,96985.00
2022-09-25T10:56:27.056Z,96988.00
2022-09-25T10:58:59.104Z,96980.00
2022-09-25T11:01:36.141Z,96979.00
2022-09-25T11:04:15.937Z,96969.00
2022-09-25T11:06:52.234Z,96979.00
2022-09-25T11:09:24.955Z,96989.00
2022-09-25T11:12:07.521Z,96979.00
2022-09-25T11:14:37.745Z,96979.00
2022-09-25T11:17:07.009Z,96972.00
2022-09-25T11:19:37.680Z,96973.00
2022-09-25T11:22:20.301Z,96967.00
2022-09-25T11:25:16.454Z,96968.00
2022-09-25T11:27:53.521Z,96968.00
2022-09-25T11:30:24.039Z,96966.00
2022-09-25T11:33:01.226Z,96965.00
2022-09-25T11:35:46.898Z,96963.00
2022-09-25T11:38:43.707Z,96972.00
2022-09-25T11:41:23.115Z,96951.00
2022-09-25T11:44:09.449Z,96968.00
2022-09-25T11:46:50.201Z,96956.00
2022-09-25T11:49:23.909Z,96950.00
2022-09-25T11:52:22.729Z,96956.00
2022-09-25T11:55:43.223Z,96950.00
2022-09-25T11:58:36.847Z,96948.00
2022-09-25T12:01:23.539Z,96942.00
2022-09-25T12:04:20.327Z,96957.00
2022-09-25T12:07:27.248Z,96953.00
2022-09-25T12:10:17.228Z,96961.00
2022-09-25T12:12:59.208Z,96967.00
2022-09-25T12:15:51.653Z,96972.00
2022-09-25T12:18:54.375Z,96969.00
2022-09-25T12:21:34.194Z,96963.00
2022-09-25T12:24:16.120Z,96974.00
2022-09-25T12:26:57.911Z,96958.00
2022-09-25T12:29:42.403Z,96969.00
2022-09-25T12:32:24.510Z,96951.00
2022-09-25T12:35:23.834Z,96958.00
2022-09-25T12:37:58.803Z,96962.00
2022-09-25T12:40:37.779Z,96958.00
2022-09-25T12:43:15.671Z,96947.00
2022-09-25T12:45:51.847Z,96948.00
2022-09-25T12:48:27.282Z,96954.00
2022-09-25T12:51:05.566Z,96956.00
2022-09-25T12:53:41.022Z,96938.00
2022-09-25T12:56:15.492Z,96942.00
2022-09-25T12:59:11.907Z,96945.00
2022-09-25T13:01:54.719Z,96947.00
2022-09-25T13:04:47.071Z,96946.00
2022-09-25T13:07:24.797Z,96953.00
2022-09-25T13:09:52.912Z,96956.00
2022-09-25T13:12:34.198Z,96965.00
2022-09-25T13:15:12.914Z,96950.00
2022-09-25T13:17:41.321Z,96954.00
2022-09-25T13:20:51.847Z,96943.00
2022-09-25T13:23:31.304Z,96945.00
2022-09-25T13:26:09.509Z,96933.00
2022-09-25T13:28:41.771Z,96942.00
2022-09-25T13:31:15.875Z,96945.00
2022-09-25T13:33:50.441Z,96940.00
2022-09-25T13:36:46.945Z,96934.00
2022-09-25T13:39:44.060Z,96928.00
2022-09-25T13:42:23.366Z,96935.00
2022-09-25T13:45:06.170Z,96928.00
2022-09-25T13:47:56.765Z,96934.00
2022-09-25T13:50:41.311Z,96921.00
2022-09-25T13:53:56.461Z,96913.00
2022-09-25T13:56:47.900Z,96920.00
2022-09-25T13:59:38.920Z,96915.00
2022-09-25T14:02:42.740Z,96923.00
2022-09-25T14:05:18.269Z,96923.00
2022-09-25T14:07:50.990Z,96926.00
2022-09-25T14:10:20.394Z,96923.00
2022-09-25T14:12:50.226Z,96923.00
2022-09-25T14:15:30.332Z,96931.00
2022-09-25T14:18:03.146Z,96922.00
2022-09-25T14:20:40.121Z,96928.00
2022-09-25T14:23:16.071Z,96921.00
2022-09-25T14:25:46.806Z,96921.00
2022-09-25T14:28:24.360Z,96923.00
2022-09-25T14:31:08.067Z,96922.00
2022-09-25T14:34:34.103Z,96920.00
2022-09-25T14:37:21.079Z,96918.00
2022-09-25T14:40:05.300Z,96917.00
2022-09-25T14:42:58.142Z,96920.00
2022-09-25T14:46:00.331Z,96912.00
2022-09-25T14:48:36.981Z,96909.00
2022-09-25T14:51:10.582Z,96914.00
2022-09-25T14:53:46.349Z,96908.00
2022-09-25T14:56:16.012Z,96904.00
2022-09-25T14:58:49.710Z,96903.00
2022-09-25T15:01:27.539Z,96911.00
2022-09-25T15:03:59.800Z,96911.00
2022-09-25T15:06:31.976Z,96921.00
2022-09-25T15:09:02.774Z,96913.00
2022-09-25T15:11:42.162Z,96918.00
2022-09-25T15:14:12.337Z,96907.00
2022-09-25T15:16:58.326Z,96910.00
2022-09-25T15:19:33.051Z,96901.00
2022-09-25T15:22:01.930Z,96902.00
2022-09-25T15:24:36.779Z,96898.00
2022-09-25T15:27:08.922Z,96903.00
2022-09-25T15:29:39.564Z,96909.00
2022-09-25T15:32:09.075Z,96913.00
2022-09-25T15:34:37.444Z,96898.00
2022-09-25T15:37:20.979Z,96897.00
2022-09-25T15:39:50.448Z,96899.00
2022-09-25T15:42:19.258Z,96893.00
2022-09-25T15:44:47.733Z,96888.00
2022-09-25T15:47:54.766Z,96894.00
2022-09-25T15:50:26.831Z,96881.00
2022-09-25T15:53:00.441Z,96879.00
2022-09-25T15:55:32.589Z,96880.00
2022-09-25T15:58:12.902Z,96887.00
2022-09-25T16:01:12.391Z,96884.00
2022-09-25T16:04:10.000Z,96873.00
2022-09-25T16:06:44.760Z,96884.00
2022-09-25T16:09:29.066Z,96881.00
2022-09-25T16:12:23.416Z,96881.00
2022-09-25T16:14:52.647Z,96888.00
2022-09-25T16:17:33.473Z,96884.00
2022-09-25T16:20:08.183Z,96883.00
2022-09-25T16:22:47.566Z,96892.00
2022-09-25T16:25:21.890Z,96880.00
2022-09-25T16:27:51.592Z,96887.00
2022-09-25T16:30:24.526Z,96874.00
2022-09-25T16:32:56.168Z,96870.00
2022-09-25T16:35:40.783Z,96876.00
2022-09-25T16:38:28.978Z,96876.00
2022-09-25T16:41:17.429Z,96892.00
2022-09-25T16:43:47.546Z,96884.00
2022-09-25T16:46:19.552Z,96879.00
2022-09-25T16:49:00.916Z,96887.00
2022-09-25T16:51:32.745Z,96887.00
2022-09-25T16:54:01.586Z,96880.00
2022-09-25T16:56:32.160Z,96879.00
2022-09-25T16:59:01.723Z,96894.00
2022-09-25T17:01:30.178Z,96894.00
2022-09-25T17:04:00.015Z,96892.00
2022-09-25T17:06:30.483Z,96887.00
2022-09-25T17:09:00.774Z,96891.00
2022-09-25T17:11:29.026Z,96889.00
2022-09-25T17:13:57.519Z,96889.00
2022-09-25T17:16:27.152Z,96877.00
2022-09-25T17:19:00.603Z,96879.00
2022-09-25T17:21:29.609Z,96898.00
2022-09-25T17:23:57.835Z,96899.00
2022-09-25T17:26:26.355Z,96903.00
2022-09-25T17:28:54.521Z,96890.00
2022-09-25T17:31:23.607Z,96900.00
2022-09-25T17:33:53.332Z,96899.00
2022-09-25T17:36:21.534Z,96896.00
2022-09-25T17:38:49.793Z,96910.00
2022-09-25T17:41:25.044Z,96910.00
2022-09-25T17:43:53.249Z,96903.00
2022-09-25T17:46:21.471Z,96895.00
2022-09-25T17:48:54.248Z,96892.00
2022-09-25T17:51:27.615Z,96897.00
2022-09-25T17:53:56.886Z,96897.00
2022-09-25T17:56:28.132Z,96912.00
2022-09-25T17:58:57.680Z,96915.00
2022-09-25T18:01:29.239Z,96919.00
2022-09-25T18:03:59.753Z,96920.00
2022-09-25T18:06:31.212Z,96917.00
2022-09-25T18:08:59.410Z,96928.00
2022-09-25T18:11:28.031Z,96929.00
2022-09-25T18:14:01.134Z,96916.00
2022-09-25T18:16:32.442Z,96915.00
2022-09-25T18:19:18.238Z,96921.00
2022-09-25T18:22:05.595Z,96926.00
2022-09-25T18:24:33.847Z,96924.00
2022-09-25T18:27:02.070Z,96926.00
2022-09-25T18:29:30.585Z,96930.00
2022-09-25T18:31:59.163Z,96920.00
2022-09-25T18:34:29.470Z,96933.00
2022-09-25T18:36:59.249Z,96926.00
2022-09-25T18:39:27.905Z,96931.00
2022-09-25T18:41:56.426Z,96930.00
2022-09-25T18:44:24.882Z,96930.00
2022-09-25T18:46:55.856Z,96941.00
2022-09-25T18:49:26.403Z,96941.00
2022-09-25T18:51:54.745Z,96938.00
2022-09-25T18:54:24.443Z,96936.00
2022-09-25T18:56:53.234Z,96934.00
2022-09-25T18:59:21.504Z,96932.00
2022-09-25T19:01:52.045Z,96940.00
2022-09-25T19:04:20.734Z,96940.00
2022-09-25T19:06:49.385Z,96944.00
2022-09-25T19:09:17.981Z,96949.00
2022-09-25T19:11:47.620Z,96953.00
2022-09-25T19:14:16.550Z,96956.00
2022-09-25T19:16:47.285Z,96953.00
2022-09-25T19:19:16.388Z,96944.00
2022-09-25T19:21:45.165Z,96943.00
2022-09-25T19:24:14.313Z,96943.00
2022-09-25T19:26:44.188Z,96952.00
2022-09-25T19:29:13.854Z,96943.00
2022-09-25T19:31:42.212Z,96946.00
2022-09-25T19:34:10.361Z,96944.00
2022-09-25T19:36:38.794Z,96950.00
2022-09-25T19:39:07.159Z,96954.00
2022-09-25T19:41:39.045Z,96960.00
2022-09-25T19:44:13.130Z,96957.00
2022-09-25T19:46:43.885Z,96950.00
2022-09-25T19:49:12.815Z,96964.00
2022-09-25T19:51:41.326Z,96956.00
2022-09-25T19:54:12.670Z,96963.00
2022-09-25T19:56:42.426Z,96961.00
2022-09-25T19:59:14.305Z,96961.00
2022-09-25T20:01:44.799Z,96964.00
2022-09-25T20:04:18.398Z,96972.00
2022-09-25T20:06:48.467Z,96973.00
2022-09-25T20:09:16.827Z,96977.00
2022-09-25T20:11:46.005Z,96973.00
2022-09-25T20:14:14.375Z,96969.00
2022-09-25T20:16:43.939Z,96979.00
2022-09-25T20:19:12.266Z,96977.00
2022-09-25T20:21:41.425Z,96971.00
2022-09-25T20:24:10.506Z,96968.00
2022-09-25T20:26:39.628Z,96970.00
2022-09-25T20:29:12.044Z,96961.00
2022-09-25T20:31:44.057Z,96967.00
2022-09-25T20:34:15.629Z,96959.00
2022-09-25T20:36:44.515Z,96962.00
2022-09-25T20:39:18.229Z,96968.00
2022-09-25T20:41:49.110Z,96952.00
2022-09-25T20:44:17.316Z,96954.00
2022-09-25T20:46:46.915Z,96967.00
2022-09-25T20:49:19.907Z,96963.00
2022-09-25T20:51:48.211Z,96961.00
2022-09-25T20:54:16.383Z,96959.00
2022-09-25T20:56:45.358Z,96967.00
2022-09-25T20:59:16.082Z,96962.00
2022-09-25T21:01:44.375Z,96960.00
2022-09-25T21:04:17.987Z,96969.00
2022-09-25T21:06:46.467Z,96963.00
2022-09-25T21:09:21.736Z,96961.00
2022-09-25T21:11:50.947Z,96957.00
2022-09-25T21:14:22.521Z,96966.00
2022-09-25T21:16:52.207Z,96943.00
2022-09-25T21:19:23.180Z,96948.00
2022-09-25T21:21:52.045Z,96944.00
2022-09-25T21:24:22.499Z,96944.00
2022-09-25T21:26:51.662Z,96943.00
2022-09-25T21:29:20.279Z,96941.00
2022-09-25T21:31:50.683Z,96941.00
2022-09-25T21:34:21.057Z,96945.00
2022-09-25T21:36:50.034Z,96941.00
2022-09-25T21:39:20.964Z,96941.00
2022-09-25T21:41:50.357Z,96943.00
2022-09-25T21:44:21.286Z,96941.00
2022-09-25T21:46:49.477Z,96945.00
2022-09-25T21:49:21.879Z,96940.00
2022-09-25T21:51:51.004Z,96928.00
2022-09-25T21:54:20.625Z,96931.00
2022-09-25T21:56:50.223Z,96937.00
2022-09-25T21:59:19.114Z,96933.00
2022-09-25T22:01:47.420Z,96927.00
2022-09-25T22:04:16.572Z,96931.00
2022-09-25T22:06:48.713Z,96938.00
2022-09-25T22:09:21.109Z,96937.00
2022-09-25T22:11:50.717Z,96928.00
2022-09-25T22:14:21.229Z,96926.00
2022-09-25T22:16:52.001Z,96934.00
2022-09-25T22:19:22.829Z,96931.00
2022-09-25T22:21:54.931Z,96919.00
2022-09-25T22:24:23.649Z,96924.00
2022-09-25T22:26:56.602Z,96926.00
2022-09-25T22:29:25.419Z,96916.00
2022-09-25T22:31:53.852Z,96922.00
2022-09-25T22:34:25.542Z,96920.00
2022-09-25T22:36:59.856Z,96914.00
2022-09-25T22:39:30.187Z,96919.00
2022-09-25T22:41:58.880Z,96923.00
2022-09-25T22:44:27.397Z,96915.00
2022-09-25T22:46:55.789Z,96910.00
2022-09-25T22:49:24.113Z,96921.00
2022-09-25T22:51:52.419Z,96916.00
2022-09-25T22:54:22.183Z,96911.00
2022-09-25T22:56:50.364Z,96912.00
2022-09-25T22:59:18.866Z,96939.00
2022-09-25T23:01:51.855Z,96917.00
2022-09-25T23:04:22.520Z,96918.00
2022-09-25T23:06:51.833Z,96921.00
2022-09-25T23:09:25.852Z,96920.00
2022-09-25T23:11:55.360Z,96915.00
2022-09-25T23:14:27.105Z,96909.00
2022-09-25T23:16:56.261Z,96911.00
2022-09-25T23:19:25.735Z,96921.00
2022-09-25T23:21:55.223Z,96910.00
2022-09-25T23:24:25.842Z,96912.00
2022-09-25T23:26:55.017Z,96910.00
2022-09-25T23:29:24.032Z,96917.00
2022-09-25T23:31:52.970Z,96920.00
2022-09-25T23:34:21.344Z,96905.00
2022-09-25T23:36:49.876Z,96907.00
2022-09-25T23:39:20.603Z,96900.00
2022-09-25T23:41:50.290Z,96896.00
2022-09-25T23:44:18.672Z,96900.00
2022-09-25T23:46:46.849Z,96884.00
2022-09-25T23:49:15.503Z,96893.00
2022-09-25T23:51:43.713Z,96895.00
2022-09-25T23:54:12.780Z,96891.00
2022-09-25T23:56:51.553Z,96884.00
2022-09-25T23:59:21.174Z,96889.00
